Time;durP1;ratioP1;P1;durP2;ratioP2;P2;SDS_P1;SDS_P2;PMS_P1;PMS_P2;Temp;Humidity;BMP_temperature;BMP_pressure;BME280_temperature;BME280_humidity;BME280_pressure;Samples;Min_cycle;Max_cycle;Signal;HPM_P1;HPM_P2
2023/08/28 00:02:25;;;;;;;2.05;0.95;;;17.10;99.90;;;;;;5054784;28;20037;-64
2023/08/28 00:04:51;;;;;;;1.15;0.90;;;17.00;99.90;;;;;;5052925;28;20773;-64
2023/08/28 00:07:17;;;;;;;1.50;1.17;;;17.00;99.90;;;;;;5056453;28;20060;-64
2023/08/28 00:09:43;;;;;;;1.10;1.00;;;16.90;99.90;;;;;;5052338;28;20147;-63
2023/08/28 00:12:08;;;;;;;1.23;0.95;;;16.90;99.90;;;;;;5056007;28;20067;-64
2023/08/28 00:14:34;;;;;;;1.77;1.10;;;16.90;99.90;;;;;;5053345;28;20063;-64
2023/08/28 00:17:00;;;;;;;1.20;1.10;;;16.80;99.90;;;;;;5054868;28;20035;-63
2023/08/28 00:19:25;;;;;;;1.05;0.90;;;16.70;99.90;;;;;;5054686;28;20039;-64
2023/08/28 00:21:52;;;;;;;0.90;0.90;;;16.70;99.90;;;;;;5053686;28;20092;-64
2023/08/28 00:24:17;;;;;;;1.45;1.13;;;16.70;99.90;;;;;;5053816;28;20452;-63
2023/08/28 00:26:43;;;;;;;1.42;1.02;;;16.60;99.90;;;;;;5053819;28;20051;-63
2023/08/28 00:29:09;;;;;;;1.02;0.93;;;16.60;99.90;;;;;;5050835;28;20036;-64
2023/08/28 00:31:35;;;;;;;1.58;1.05;;;16.60;99.90;;;;;;5055124;28;20032;-64
2023/08/28 00:34:02;;;;;;;1.05;0.95;;;16.60;99.90;;;;;;5035908;28;20033;-63
2023/08/28 00:36:28;;;;;;;1.50;1.20;;;16.60;99.90;;;;;;5041783;28;20705;-63
2023/08/28 00:38:53;;;;;;;1.70;1.00;;;16.60;99.90;;;;;;5052583;28;20031;-63
2023/08/28 00:41:19;;;;;;;3.33;0.90;;;16.60;99.90;;;;;;5042851;28;20028;-64
2023/08/28 00:43:45;;;;;;;1.88;1.05;;;16.50;99.90;;;;;;5035673;28;20024;-63
2023/08/28 00:46:11;;;;;;;2.50;1.08;;;16.50;99.90;;;;;;5039796;28;20054;-64
2023/08/28 00:48:37;;;;;;;1.77;1.13;;;16.50;99.90;;;;;;5036354;28;20539;-64
2023/08/28 00:51:04;;;;;;;1.77;1.10;;;16.40;99.90;;;;;;5034849;28;20080;-64
2023/08/28 00:53:29;;;;;;;1.63;1.00;;;16.40;99.90;;;;;;5036877;28;20052;-63
2023/08/28 00:55:56;;;;;;;0.77;0.77;;;16.40;99.90;;;;;;5040244;28;20379;-64
2023/08/28 00:58:21;;;;;;;1.65;1.20;;;16.30;99.90;;;;;;5054839;28;20086;-64
2023/08/28 01:00:47;;;;;;;1.35;0.90;;;16.20;99.90;;;;;;5039874;28;20168;-64
2023/08/28 01:03:13;;;;;;;1.48;1.10;;;16.20;99.90;;;;;;5039294;28;20123;-63
2023/08/28 01:05:59;;;;;;;2.10;0.90;;;16.20;99.90;;;;;;5040066;28;20021;-64
2023/08/28 01:09:19;;;;;;;1.03;0.93;;;16.20;99.90;;;;;;5035584;28;20115;-64
2023/08/28 01:11:52;;;;;;;1.48;1.10;;;16.20;99.90;;;;;;5025254;28;20140;-64
2023/08/28 01:14:28;;;;;;;3.33;1.27;;;16.20;99.90;;;;;;5034784;28;20035;-64
2023/08/28 01:16:58;;;;;;;0.98;0.85;;;16.10;99.90;;;;;;5039614;28;20033;-64
2023/08/28 01:19:44;;;;;;;1.50;1.00;;;16.10;99.90;;;;;;5038548;28;20036;-64
2023/08/28 01:22:22;;;;;;;2.88;1.10;;;16.10;99.90;;;;;;5037632;28;20067;-64
2023/08/28 01:24:53;;;;;;;2.25;1.25;;;16.00;99.90;;;;;;5049591;28;20059;-64
2023/08/28 01:27:21;;;;;;;2.50;1.10;;;16.00;99.90;;;;;;5041246;28;20102;-64
2023/08/28 01:30:11;;;;;;;1.65;1.20;;;16.00;99.90;;;;;;5052273;28;20044;-64
2023/08/28 01:32:38;;;;;;;1.80;1.10;;;15.90;99.90;;;;;;5036348;28;20025;-63
2023/08/28 01:35:10;;;;;;;1.65;1.05;;;15.90;99.90;;;;;;5035249;28;20136;-63
2023/08/28 01:38:04;;;;;;;1.48;1.20;;;15.90;99.90;;;;;;5039107;28;20039;-64
2023/08/28 01:40:54;;;;;;;1.20;1.10;;;15.80;99.90;;;;;;5039659;28;20032;-64
2023/08/28 01:43:24;;;;;;;1.83;1.20;;;15.80;99.90;;;;;;5037270;28;20770;-64
2023/08/28 01:45:51;;;;;;;3.88;1.50;;;15.80;99.90;;;;;;5036856;28;20473;-63
2023/08/28 01:48:17;;;;;;;2.10;1.17;;;15.70;99.90;;;;;;5052669;28;20151;-63
2023/08/28 01:50:43;;;;;;;1.83;1.30;;;15.70;99.90;;;;;;5035897;28;20678;-64
2023/08/28 01:53:08;;;;;;;1.00;0.88;;;15.70;99.90;;;;;;5054247;28;20029;-63
2023/08/28 01:55:46;;;;;;;1.38;1.27;;;15.60;99.90;;;;;;5037353;28;20032;-63
2023/08/28 01:58:14;;;;;;;1.10;1.00;;;15.60;99.90;;;;;;5038662;28;20032;-63
2023/08/28 02:00:39;;;;;;;2.25;1.40;;;15.50;99.90;;;;;;5039224;28;20686;-64
2023/08/28 02:03:06;;;;;;;1.83;1.20;;;15.50;99.90;;;;;;5053687;28;20157;-64
2023/08/28 02:05:32;;;;;;;1.48;1.17;;;15.50;99.90;;;;;;5037948;28;20619;-64
2023/08/28 02:07:59;;;;;;;1.70;1.20;;;15.40;99.90;;;;;;5039115;28;20025;-64
2023/08/28 02:10:28;;;;;;;2.97;1.50;;;15.40;99.90;;;;;;5038219;28;20135;-64
2023/08/28 02:12:56;;;;;;;2.17;1.50;;;15.40;99.90;;;;;;5037551;28;20116;-63
2023/08/28 02:15:22;;;;;;;2.45;1.40;;;15.40;99.90;;;;;;5037446;28;20124;-63
2023/08/28 02:17:49;;;;;;;1.95;1.30;;;15.40;99.90;;;;;;5038426;28;20024;-63
2023/08/28 02:20:14;;;;;;;1.20;0.98;;;15.40;99.90;;;;;;5036649;28;20147;-63
2023/08/28 02:22:40;;;;;;;2.05;1.00;;;15.30;99.90;;;;;;5039043;28;20033;-64
2023/08/28 02:25:06;;;;;;;1.40;1.20;;;15.30;99.90;;;;;;5036206;28;20048;-63
2023/08/28 02:27:32;;;;;;;2.47;1.15;;;15.30;99.90;;;;;;5044514;28;20028;-63
2023/08/28 02:29:59;;;;;;;2.08;1.33;;;15.20;99.90;;;;;;5038608;28;20029;-64
2023/08/28 02:32:25;;;;;;;1.27;1.10;;;15.20;99.90;;;;;;5045291;28;20032;-64
2023/08/28 02:34:52;;;;;;;1.63;0.90;;;15.20;99.90;;;;;;5054870;28;20033;-64
2023/08/28 02:37:19;;;;;;;1.38;1.27;;;15.10;99.90;;;;;;5058483;28;20036;-63
2023/08/28 02:39:44;;;;;;;3.25;1.30;;;15.20;99.90;;;;;;5054223;28;20749;-64
2023/08/28 02:42:11;;;;;;;3.50;1.30;;;15.10;99.90;;;;;;5039784;28;20184;-63
2023/08/28 02:44:36;;;;;;;1.20;1.10;;;15.20;99.90;;;;;;5055746;28;20138;-64
2023/08/28 02:47:02;;;;;;;1.55;1.25;;;15.10;99.90;;;;;;5037235;28;20507;-64
2023/08/28 02:49:28;;;;;;;2.05;1.27;;;15.10;99.90;;;;;;5059462;28;20032;-63
2023/08/28 02:51:54;;;;;;;1.42;1.30;;;15.10;99.90;;;;;;5054875;28;20033;-63
2023/08/28 02:54:19;;;;;;;1.80;1.30;;;15.10;99.90;;;;;;5057967;28;20849;-63
2023/08/28 02:56:45;;;;;;;1.77;1.48;;;15.00;99.90;;;;;;5055088;28;20670;-63
2023/08/28 02:59:11;;;;;;;2.00;1.23;;;15.00;99.90;;;;;;5043357;28;20028;-63
2023/08/28 03:01:37;;;;;;;1.30;1.20;;;15.00;99.90;;;;;;5042782;28;20035;-63
2023/08/28 03:04:05;;;;;;;2.65;1.60;;;15.00;99.90;;;;;;5042571;28;20120;-63
2023/08/28 03:06:37;;;;;;;3.75;1.60;;;15.00;99.90;;;;;;5040333;28;20547;-63
2023/08/28 03:09:04;;;;;;;1.60;1.50;;;15.00;99.90;;;;;;5054157;28;20112;-63
2023/08/28 03:11:30;;;;;;;2.35;1.30;;;15.00;99.90;;;;;;5040614;28;20028;-64
2023/08/28 03:13:56;;;;;;;1.58;1.02;;;15.00;99.90;;;;;;5041257;28;20039;-63
2023/08/28 03:16:21;;;;;;;4.35;1.85;;;15.00;99.90;;;;;;5040196;28;20032;-63
2023/08/28 03:18:49;;;;;;;1.00;0.93;;;15.00;99.90;;;;;;5040904;28;20063;-63
2023/08/28 03:21:15;;;;;;;3.03;1.48;;;15.00;99.90;;;;;;5039142;28;20021;-63
2023/08/28 03:23:41;;;;;;;4.57;1.33;;;15.00;99.90;;;;;;5054917;28;20029;-63
2023/08/28 03:26:07;;;;;;;2.97;1.30;;;15.00;99.90;;;;;;5054655;28;20021;-63
2023/08/28 03:28:33;;;;;;;1.92;1.13;;;15.00;99.90;;;;;;5042906;28;20068;-63
2023/08/28 03:31:00;;;;;;;1.50;1.40;;;15.00;99.90;;;;;;5054450;28;20117;-64
2023/08/28 03:33:26;;;;;;;3.03;1.20;;;15.00;99.90;;;;;;5057206;28;20028;-63
2023/08/28 03:35:52;;;;;;;3.60;1.50;;;15.00;99.90;;;;;;5037260;28;20061;-63
2023/08/28 03:38:18;;;;;;;1.55;1.30;;;15.00;99.90;;;;;;5043895;28;20051;-64
2023/08/28 03:40:46;;;;;;;3.13;1.63;;;14.90;99.90;;;;;;5035127;28;20036;-63
2023/08/28 03:43:12;;;;;;;1.75;1.40;;;15.00;99.90;;;;;;5036921;28;20495;-63
2023/08/28 03:45:38;;;;;;;3.50;1.50;;;14.90;99.90;;;;;;5054432;28;20028;-63
2023/08/28 03:48:05;;;;;;;2.85;1.48;;;14.90;99.90;;;;;;5043193;28;20025;-64
2023/08/28 03:50:32;;;;;;;3.28;1.58;;;14.90;99.90;;;;;;5038699;28;20040;-63
2023/08/28 03:52:58;;;;;;;1.90;1.52;;;14.90;99.90;;;;;;5054017;28;20037;-63
2023/08/28 03:55:24;;;;;;;1.63;1.52;;;14.90;99.90;;;;;;5039872;28;20029;-64
2023/08/28 03:57:51;;;;;;;1.83;1.60;;;14.90;99.90;;;;;;5041683;28;20071;-63
2023/08/28 04:00:18;;;;;;;2.28;2.00;;;14.80;99.90;;;;;;5040689;28;20025;-63
2023/08/28 04:02:46;;;;;;;2.50;1.83;;;14.80;99.90;;;;;;5052818;28;20032;-63
2023/08/28 04:05:12;;;;;;;2.20;2.00;;;14.90;99.90;;;;;;5041563;28;20024;-63
2023/08/28 04:07:37;;;;;;;2.38;2.17;;;14.90;99.90;;;;;;5053193;28;20029;-63
2023/08/28 04:10:04;;;;;;;6.22;3.00;;;14.90;99.90;;;;;;5041403;28;20048;-64
2023/08/28 04:12:31;;;;;;;2.38;2.00;;;15.00;99.90;;;;;;5038055;28;20781;-64
2023/08/28 04:14:57;;;;;;;2.50;2.20;;;15.00;99.90;;;;;;5039234;28;20505;-63
2023/08/28 04:17:24;;;;;;;2.65;1.80;;;15.00;99.90;;;;;;5039522;28;20183;-63
2023/08/28 04:19:51;;;;;;;1.88;1.70;;;15.00;99.90;;;;;;5039511;28;20839;-63
2023/08/28 04:22:20;;;;;;;2.33;1.77;;;14.90;99.90;;;;;;5054044;28;20484;-64
2023/08/28 04:24:49;;;;;;;2.65;2.08;;;14.90;99.90;;;;;;5039410;28;20028;-64
2023/08/28 04:27:16;;;;;;;2.20;1.77;;;14.90;99.90;;;;;;5038171;28;20020;-64
2023/08/28 04:29:42;;;;;;;3.05;2.03;;;14.90;99.90;;;;;;5039801;28;20762;-64
2023/08/28 04:32:09;;;;;;;2.60;1.80;;;15.00;99.90;;;;;;5053826;28;20075;-64
2023/08/28 04:34:36;;;;;;;2.47;1.90;;;15.00;99.90;;;;;;5038236;28;20031;-63
2023/08/28 04:37:04;;;;;;;3.92;1.88;;;15.00;99.90;;;;;;5034787;28;20039;-63
2023/08/28 04:39:29;;;;;;;3.47;2.20;;;15.00;99.90;;;;;;5041866;28;20428;-63
2023/08/28 04:41:55;;;;;;;5.07;1.98;;;15.00;99.90;;;;;;5035898;28;20058;-63
2023/08/28 04:44:21;;;;;;;3.67;1.90;;;15.00;99.90;;;;;;5042919;28;20098;-64
2023/08/28 04:46:50;;;;;;;2.65;1.98;;;15.10;99.90;;;;;;5052328;28;20494;-63
2023/08/28 04:49:16;;;;;;;2.60;1.92;;;15.10;99.90;;;;;;5055149;28;20025;-63
2023/08/28 04:51:42;;;;;;;3.72;2.20;;;15.10;99.90;;;;;;5035974;28;20033;-63
2023/08/28 04:54:09;;;;;;;2.50;1.92;;;15.10;99.90;;;;;;5042661;28;20448;-63
2023/08/28 04:56:35;;;;;;;2.55;2.08;;;15.10;99.90;;;;;;5036612;28;20032;-63
2023/08/28 04:59:01;;;;;;;2.50;2.03;;;15.20;99.90;;;;;;5052905;28;20031;-63
2023/08/28 05:01:29;;;;;;;2.78;2.53;;;15.30;99.90;;;;;;5021211;28;20075;-63
2023/08/28 05:03:55;;;;;;;3.30;2.13;;;15.30;99.90;;;;;;5039981;28;20033;-63
2023/08/28 05:06:22;;;;;;;4.20;2.15;;;15.30;99.90;;;;;;5055000;28;20020;-63
2023/08/28 05:08:47;;;;;;;3.63;1.80;;;15.30;99.90;;;;;;5039973;28;20037;-63
2023/08/28 05:11:13;;;;;;;3.10;2.33;;;15.40;99.90;;;;;;5039740;28;20040;-63
2023/08/28 05:13:40;;;;;;;2.95;2.38;;;15.40;99.90;;;;;;5051401;28;20040;-63
2023/08/28 05:16:05;;;;;;;4.28;1.60;;;15.50;99.90;;;;;;5040425;28;20035;-63
2023/08/28 05:18:31;;;;;;;2.15;1.77;;;15.50;99.90;;;;;;5040401;28;20028;-63
2023/08/28 05:20:57;;;;;;;2.03;1.92;;;15.50;99.90;;;;;;5039250;28;20035;-63
2023/08/28 05:23:25;;;;;;;2.65;2.20;;;15.50;99.90;;;;;;5050599;28;20037;-63
2023/08/28 05:25:55;;;;;;;2.67;1.83;;;15.60;99.90;;;;;;5036765;28;20044;-63
2023/08/28 05:28:21;;;;;;;3.22;2.03;;;15.70;99.90;;;;;;5037974;28;20033;-63
2023/08/28 05:30:47;;;;;;;2.65;1.88;;;15.70;99.90;;;;;;5052532;28;20032;-64
2023/08/28 05:33:13;;;;;;;2.60;2.40;;;15.70;99.90;;;;;;5053195;28;20117;-63
2023/08/28 05:35:41;;;;;;;3.25;2.50;;;15.80;99.90;;;;;;5039168;28;20921;-63
2023/08/28 05:38:07;;;;;;;3.28;2.50;;;15.80;99.90;;;;;;5035614;28;20049;-63
2023/08/28 05:40:33;;;;;;;4.07;2.20;;;15.90;99.90;;;;;;5052295;28;20144;-63
2023/08/28 05:42:59;;;;;;;2.60;2.38;;;15.90;99.90;;;;;;5033683;28;20531;-63
2023/08/28 05:45:25;;;;;;;3.97;2.78;;;15.90;99.90;;;;;;5034924;28;20112;-63
2023/08/28 05:47:51;;;;;;;2.22;2.03;;;15.90;99.90;;;;;;5034872;28;20155;-63
2023/08/28 05:50:18;;;;;;;5.43;2.53;;;15.90;99.90;;;;;;5042084;28;20754;-63
2023/08/28 05:52:45;;;;;;;4.25;2.58;;;16.00;99.90;;;;;;5034314;28;20029;-63
2023/08/28 05:55:11;;;;;;;5.32;2.60;;;16.00;99.90;;;;;;5053958;28;20140;-63
2023/08/28 05:57:37;;;;;;;4.05;2.78;;;16.10;99.90;;;;;;5035361;28;20028;-63
2023/08/28 06:00:04;;;;;;;4.03;2.47;;;16.10;99.90;;;;;;5041599;28;20033;-63
2023/08/28 06:02:38;;;;;;;5.70;2.67;;;16.20;99.90;;;;;;5056064;28;20029;-63
2023/08/28 06:05:04;;;;;;;3.45;2.10;;;16.30;99.90;;;;;;5057035;28;20021;-63
2023/08/28 06:07:31;;;;;;;4.18;1.90;;;16.30;99.90;;;;;;5040168;28;20056;-63
2023/08/28 06:09:57;;;;;;;4.85;1.80;;;16.30;99.90;;;;;;5044083;28;20037;-63
2023/08/28 06:12:22;;;;;;;2.22;1.88;;;16.30;99.90;;;;;;5041466;28;20461;-63
2023/08/28 06:14:49;;;;;;;5.57;2.25;;;16.40;99.90;;;;;;5055649;28;20052;-63
2023/08/28 06:17:15;;;;;;;3.58;1.80;;;16.50;99.90;;;;;;5042446;28;20039;-63
2023/08/28 06:19:41;;;;;;;3.85;2.00;;;16.50;99.90;;;;;;5043482;28;20025;-63
2023/08/28 06:22:08;;;;;;;2.70;1.88;;;16.50;99.90;;;;;;5058833;28;20042;-64
2023/08/28 06:24:35;;;;;;;2.67;1.50;;;16.50;99.90;;;;;;5026043;28;20037;-63
2023/08/28 06:27:02;;;;;;;3.85;1.67;;;16.50;99.90;;;;;;5043034;28;20052;-63
2023/08/28 06:29:28;;;;;;;1.90;1.60;;;16.60;99.90;;;;;;5044233;28;20028;-63
2023/08/28 06:31:54;;;;;;;2.20;1.77;;;16.60;99.90;;;;;;5053861;28;20043;-64
2023/08/28 06:34:19;;;;;;;2.40;1.70;;;16.70;99.90;;;;;;5057396;28;20024;-63
2023/08/28 06:36:45;;;;;;;2.10;1.65;;;16.60;99.90;;;;;;5055555;28;20029;-63
2023/08/28 06:39:12;;;;;;;2.65;1.60;;;16.60;99.90;;;;;;5055880;28;20079;-64
2023/08/28 06:41:38;;;;;;;6.25;1.70;;;16.60;99.90;;;;;;5056330;28;20056;-63
2023/08/28 06:44:05;;;;;;;3.30;1.70;;;16.50;99.90;;;;;;5041403;28;20020;-64
2023/08/28 06:46:31;;;;;;;4.00;1.85;;;16.50;99.90;;;;;;5057129;28;20127;-63
2023/08/28 06:48:57;;;;;;;5.00;2.03;;;16.60;99.90;;;;;;5054946;28;21362;-63
2023/08/28 06:51:23;;;;;;;5.05;2.20;;;16.60;99.90;;;;;;5058399;28;20032;-63
2023/08/28 06:53:49;;;;;;;2.80;1.90;;;16.70;99.90;;;;;;5054904;28;20037;-63
2023/08/28 06:56:15;;;;;;;2.85;2.17;;;16.70;99.90;;;;;;5057753;28;20036;-63
2023/08/28 06:58:41;;;;;;;4.97;2.60;;;16.80;99.90;;;;;;5055010;28;20033;-63
2023/08/28 07:01:07;;;;;;;10.10;4.70;;;16.90;99.90;;;;;;5056582;28;20033;-63
2023/08/28 07:03:33;;;;;;;4.07;2.80;;;17.00;99.90;;;;;;5055032;28;20032;-64
2023/08/28 07:05:59;;;;;;;4.63;2.40;;;17.10;99.90;;;;;;5054868;28;20040;-64
2023/08/28 07:08:25;;;;;;;10.18;4.53;;;17.10;99.90;;;;;;5056542;28;20052;-64
2023/08/28 07:10:51;;;;;;;3.20;2.67;;;17.20;99.90;;;;;;5054463;28;20068;-64
2023/08/28 07:13:17;;;;;;;4.15;2.20;;;17.20;99.90;;;;;;5057372;28;20427;-64
2023/08/28 07:15:43;;;;;;;3.65;2.00;;;17.20;99.90;;;;;;5053650;28;20979;-63
2023/08/28 07:18:08;;;;;;;5.65;2.25;;;17.20;99.90;;;;;;5057910;28;20032;-64
2023/08/28 07:20:35;;;;;;;5.28;2.72;;;17.30;99.90;;;;;;5054319;28;20032;-63
2023/08/28 07:23:01;;;;;;;7.82;3.05;;;17.60;99.90;;;;;;5056044;28;20048;-64
2023/08/28 07:25:27;;;;;;;3.80;2.00;;;17.80;99.90;;;;;;5052907;28;20059;-64
2023/08/28 07:27:54;;;;;;;4.15;2.40;;;18.00;99.90;;;;;;5054437;28;20070;-64
2023/08/28 07:30:20;;;;;;;5.07;2.60;;;18.10;99.90;;;;;;5055409;28;20645;-64
2023/08/28 07:32:46;;;;;;;2.83;1.48;;;18.20;99.80;;;;;;5054472;28;20037;-64
2023/08/28 07:35:13;;;;;;;4.35;1.73;;;18.30;99.80;;;;;;5055292;28;20092;-64
2023/08/28 07:37:38;;;;;;;4.95;1.33;;;18.40;99.70;;;;;;5054540;28;20039;-64
2023/08/28 07:40:05;;;;;;;3.83;1.85;;;18.40;99.30;;;;;;5053548;28;20041;-64
2023/08/28 07:42:35;;;;;;;6.15;1.92;;;18.30;99.00;;;;;;5052705;28;20429;-64
2023/08/28 07:45:02;;;;;;;3.80;1.60;;;18.30;99.40;;;;;;5053681;28;20055;-64
2023/08/28 07:47:28;;;;;;;4.68;1.45;;;18.30;99.50;;;;;;5056470;28;20036;-64
2023/08/28 07:49:54;;;;;;;2.60;1.58;;;18.20;99.30;;;;;;5053375;28;20036;-64
2023/08/28 07:52:20;;;;;;;2.67;1.50;;;18.20;99.60;;;;;;5056587;28;20502;-64
2023/08/28 07:54:46;;;;;;;2.28;1.20;;;18.20;99.50;;;;;;5053356;28;20028;-64
2023/08/28 07:57:12;;;;;;;2.15;1.25;;;18.20;99.70;;;;;;5056624;28;20059;-64
2023/08/28 07:59:39;;;;;;;4.05;1.45;;;18.30;99.80;;;;;;5053442;28;20040;-64
2023/08/28 08:02:04;;;;;;;2.45;1.40;;;18.40;99.60;;;;;;5055437;28;20483;-63
2023/08/28 08:04:33;;;;;;;3.17;1.15;;;18.40;99.20;;;;;;5054283;28;20120;-64
2023/08/28 08:07:00;;;;;;;5.43;1.63;;;18.50;99.40;;;;;;5054090;28;20029;-64
2023/08/28 08:09:26;;;;;;;1.20;0.98;;;18.50;99.40;;;;;;5055139;28;20033;-63
2023/08/28 08:11:52;;;;;;;3.25;1.20;;;18.50;99.60;;;;;;5053954;28;20040;-64
2023/08/28 08:14:19;;;;;;;1.65;1.10;;;18.60;99.40;;;;;;5055741;28;20098;-63
2023/08/28 08:16:45;;;;;;;4.40;1.00;;;18.70;99.60;;;;;;5053169;28;20036;-64
2023/08/28 08:19:10;;;;;;;3.22;1.27;;;18.80;99.10;;;;;;5056459;28;20070;-63
2023/08/28 08:21:36;;;;;;;3.00;1.45;;;19.00;98.70;;;;;;5053258;28;20024;-64
2023/08/28 08:24:03;;;;;;;2.55;1.15;;;19.20;98.50;;;;;;5054597;28;20029;-64
2023/08/28 08:26:28;;;;;;;3.90;1.20;;;19.30;98.60;;;;;;5053345;28;20024;-64
2023/08/28 08:28:55;;;;;;;2.20;1.23;;;19.30;98.10;;;;;;5054336;28;20401;-64
2023/08/28 08:31:20;;;;;;;1.15;1.05;;;19.50;98.50;;;;;;5054020;28;20059;-64
2023/08/28 08:33:46;;;;;;;2.17;1.10;;;19.60;98.10;;;;;;5052296;28;20091;-64
2023/08/28 08:36:15;;;;;;;3.50;1.17;;;19.60;97.70;;;;;;5054572;28;20032;-64
2023/08/28 08:38:41;;;;;;;2.08;1.30;;;19.60;98.10;;;;;;5053253;28;20044;-64
2023/08/28 08:41:08;;;;;;;1.52;1.10;;;19.70;97.80;;;;;;5053725;28;20025;-64
2023/08/28 08:43:34;;;;;;;2.58;0.95;;;19.70;97.30;;;;;;5053955;28;20074;-70
2023/08/28 08:46:05;;;;;;;2.20;0.90;;;19.80;97.60;;;;;;5049191;28;20036;-64
2023/08/28 08:48:36;;;;;;;3.50;1.20;;;19.80;96.80;;;;;;5047789;28;20083;-64
2023/08/28 08:51:04;;;;;;;2.15;1.10;;;19.80;96.50;;;;;;5048751;28;20036;-64
2023/08/28 08:53:42;;;;;;;1.30;1.00;;;19.80;97.00;;;;;;5052302;28;20032;-64
2023/08/28 08:56:12;;;;;;;2.85;1.13;;;19.80;97.60;;;;;;5049697;28;20044;-64
2023/08/28 08:58:39;;;;;;;2.30;0.90;;;19.80;97.40;;;;;;5053247;28;20029;-64
2023/08/28 09:01:06;;;;;;;1.98;0.80;;;19.90;97.10;;;;;;5052628;28;20388;-64
2023/08/28 09:03:34;;;;;;;0.90;0.85;;;19.90;97.00;;;;;;5053457;28;20116;-64
2023/08/28 09:06:01;;;;;;;0.90;0.80;;;20.00;96.60;;;;;;5051949;28;20389;-64
2023/08/28 09:08:28;;;;;;;2.05;0.98;;;20.00;96.50;;;;;;5054800;28;20476;-64
2023/08/28 09:10:59;;;;;;;2.40;0.82;;;20.00;96.20;;;;;;5051390;28;20746;-64
2023/08/28 09:13:25;;;;;;;1.67;0.85;;;19.90;96.70;;;;;;5049260;28;20032;-64
2023/08/28 09:15:51;;;;;;;1.52;0.77;;;20.00;96.50;;;;;;5051538;28;20381;-64
2023/08/28 09:18:17;;;;;;;1.60;1.20;;;20.00;96.80;;;;;;5055197;28;20035;-64
2023/08/28 09:20:43;;;;;;;2.85;0.80;;;20.00;96.60;;;;;;5037563;28;20040;-64
2023/08/28 09:23:09;;;;;;;1.02;0.70;;;20.10;96.70;;;;;;5053824;28;20024;-64
2023/08/28 09:25:35;;;;;;;3.00;1.00;;;20.10;96.40;;;;;;5052816;28;20055;-64
2023/08/28 09:28:00;;;;;;;5.15;1.02;;;20.10;96.10;;;;;;5051484;28;20058;-64
2023/08/28 09:30:28;;;;;;;1.95;1.00;;;20.10;95.70;;;;;;5053318;28;20025;-64
2023/08/28 09:32:54;;;;;;;1.65;0.95;;;20.10;96.00;;;;;;5052315;28;20090;-64
2023/08/28 09:35:20;;;;;;;2.08;0.90;;;20.10;96.10;;;;;;5054448;28;20528;-64
2023/08/28 09:38:07;;;;;;;1.23;1.05;;;20.20;95.90;;;;;;5051547;28;20032;-64
2023/08/28 09:40:40;;;;;;;;;;;20.20;96.00;;;;;;5051473;28;20246;-64
2023/08/28 09:43:24;;;;;;;1.45;0.80;;;20.20;96.00;;;;;;5042183;28;19995;-64
2023/08/28 09:45:59;;;;;;;1.63;0.88;;;20.20;96.10;;;;;;5049502;28;20020;-64
2023/08/28 09:48:28;;;;;;;1.52;0.80;;;20.30;95.70;;;;;;5048487;28;20072;-64
2023/08/28 09:50:54;;;;;;;2.47;0.80;;;20.30;95.70;;;;;;5051253;28;20033;-64
2023/08/28 09:53:20;;;;;;;1.15;0.70;;;20.30;95.60;;;;;;5052045;28;20032;-64
2023/08/28 09:55:54;;;;;;;0.85;0.75;;;20.40;95.60;;;;;;5051677;28;20091;-64
2023/08/28 09:58:28;;;;;;;2.90;1.00;;;20.40;95.60;;;;;;5054389;28;20036;-64
2023/08/28 10:00:57;;;;;;;2.20;0.90;;;20.40;95.30;;;;;;5051073;28;20051;-64
2023/08/28 10:03:25;;;;;;;1.55;0.80;;;20.40;95.30;;;;;;5053984;28;20146;-64
2023/08/28 10:05:52;;;;;;;2.00;0.80;;;20.40;95.00;;;;;;5051514;28;20029;-64
2023/08/28 10:08:18;;;;;;;0.82;0.65;;;20.40;95.40;;;;;;5054832;28;20048;-64
2023/08/28 10:10:50;;;;;;;1.88;0.80;;;20.40;95.60;;;;;;5049360;28;20033;-64
2023/08/28 10:13:21;;;;;;;1.38;0.70;;;20.50;95.40;;;;;;5054317;28;20078;-64
2023/08/28 10:15:50;;;;;;;1.23;1.02;;;20.50;95.30;;;;;;5048175;28;20544;-64
2023/08/28 10:18:24;;;;;;;3.20;0.90;;;20.50;95.20;;;;;;5054225;28;20052;-64
2023/08/28 10:20:50;;;;;;;2.80;0.95;;;20.60;95.20;;;;;;5049507;28;20140;-64
2023/08/28 10:23:19;;;;;;;1.83;0.90;;;20.70;95.20;;;;;;5053861;28;20032;-64
2023/08/28 10:25:47;;;;;;;1.98;0.70;;;20.70;94.80;;;;;;5048461;28;20025;-64
2023/08/28 10:28:14;;;;;;;4.20;0.93;;;20.80;95.10;;;;;;5041387;28;20032;-64
2023/08/28 10:30:41;;;;;;;1.35;0.50;;;20.90;94.80;;;;;;5035226;28;20029;-64
2023/08/28 10:33:12;;;;;;;1.73;0.90;;;21.00;94.80;;;;;;5051859;28;20043;-64
2023/08/28 10:35:40;;;;;;;3.22;0.90;;;21.20;94.80;;;;;;5051406;28;20033;-64
2023/08/28 10:38:06;;;;;;;2.35;0.90;;;21.30;94.10;;;;;;5052442;28;20036;-64
2023/08/28 10:40:34;;;;;;;2.88;0.90;;;21.30;94.10;;;;;;5051976;28;20029;-64
2023/08/28 10:43:00;;;;;;;2.10;0.80;;;21.40;93.90;;;;;;5051320;28;20025;-64
2023/08/28 10:45:25;;;;;;;1.67;0.70;;;21.40;93.80;;;;;;5050349;28;20812;-64
2023/08/28 10:47:51;;;;;;;1.85;0.70;;;21.50;93.10;;;;;;5056353;28;20048;-64
2023/08/28 10:50:17;;;;;;;3.58;0.80;;;21.40;93.10;;;;;;5057814;28;20028;-64
2023/08/28 10:52:46;;;;;;;2.58;0.85;;;21.40;93.40;;;;;;5054516;28;20036;-64
2023/08/28 10:55:17;;;;;;;2.95;0.90;;;21.40;92.90;;;;;;5057670;28;20029;-64
2023/08/28 10:57:49;;;;;;;1.48;0.88;;;21.40;92.70;;;;;;5054823;28;20036;-64
2023/08/28 11:00:20;;;;;;;1.73;0.70;;;21.40;92.90;;;;;;5058154;28;20036;-64
2023/08/28 11:03:09;;;;;;;7.35;0.80;;;21.40;92.40;;;;;;5054530;28;20021;-64
2023/08/28 11:05:38;;;;;;;2.03;0.80;;;21.30;92.60;;;;;;5038958;28;20025;-64
2023/08/28 11:08:06;;;;;;;1.63;0.70;;;21.30;93.00;;;;;;5054922;28;20468;-64
2023/08/28 11:10:33;;;;;;;3.33;0.65;;;21.30;93.30;;;;;;5056272;28;20033;-64
2023/08/28 11:13:02;;;;;;;1.60;0.63;;;21.30;93.60;;;;;;5054413;28;20405;-64
2023/08/28 11:15:34;;;;;;;1.70;0.73;;;21.50;93.60;;;;;;5056195;28;20028;-64
2023/08/28 11:18:18;;;;;;;2.28;0.80;;;21.60;92.30;;;;;;5053933;28;20103;-64
2023/08/28 11:20:52;;;;;;;1.73;0.55;;;21.60;92.30;;;;;;5055439;28;20029;-64
2023/08/28 11:23:33;;;;;;;1.05;0.80;;;21.50;92.20;;;;;;5054687;28;20040;-64
2023/08/28 11:26:05;;;;;;;1.70;0.70;;;21.50;92.50;;;;;;5055697;28;20036;-64
2023/08/28 11:28:41;;;;;;;2.20;0.75;;;21.60;92.40;;;;;;5053854;28;20739;-64
2023/08/28 11:31:07;;;;;;;2.97;1.10;;;21.60;92.40;;;;;;5055733;28;20030;-64
2023/08/28 11:33:37;;;;;;;2.13;1.00;;;21.60;92.00;;;;;;5053518;28;20139;-64
2023/08/28 11:36:03;;;;;;;2.45;0.88;;;21.60;93.20;;;;;;5054568;28;20114;-64
2023/08/28 11:38:29;;;;;;;1.13;0.60;;;21.60;92.50;;;;;;5054122;28;20524;-64
2023/08/28 11:41:08;;;;;;;1.60;0.60;;;21.60;92.00;;;;;;5054785;28;20523;-64
2023/08/28 11:43:40;;;;;;;1.77;0.80;;;21.70;91.90;;;;;;5049552;28;20785;-64
2023/08/28 11:46:06;;;;;;;2.58;0.70;;;21.80;92.00;;;;;;5054948;28;20052;-64
2023/08/28 11:48:45;;;;;;;1.65;0.68;;;21.90;92.10;;;;;;5054066;28;20032;-64
2023/08/28 11:51:10;;;;;;;0.93;0.70;;;22.00;91.30;;;;;;5055942;28;20033;-64
2023/08/28 11:53:40;;;;;;;2.03;0.90;;;22.00;90.60;;;;;;5044875;28;20044;-64
2023/08/28 11:56:07;;;;;;;2.22;0.95;;;21.90;90.50;;;;;;5052152;28;20136;-64
2023/08/28 11:58:38;;;;;;;0.60;0.60;;;21.80;90.90;;;;;;5052391;28;20021;-64
2023/08/28 12:01:07;;;;;;;1.30;0.80;;;21.70;91.80;;;;;;5056153;28;20032;-64
2023/08/28 12:03:36;;;;;;;2.10;0.80;;;21.70;91.80;;;;;;5053595;28;20821;-64
2023/08/28 12:06:07;;;;;;;1.60;0.50;;;21.80;91.60;;;;;;5055481;28;20021;-64
2023/08/28 12:08:41;;;;;;;2.90;0.70;;;21.80;90.70;;;;;;5038713;28;20020;-64
2023/08/28 12:11:09;;;;;;;3.92;0.60;;;21.80;90.90;;;;;;5054335;28;20107;-64
2023/08/28 12:13:36;;;;;;;2.38;0.73;;;21.90;91.20;;;;;;5053163;28;20023;-64
2023/08/28 12:16:15;;;;;;;1.08;0.70;;;22.00;91.40;;;;;;5055029;28;20828;-64
2023/08/28 12:18:46;;;;;;;2.13;0.63;;;22.00;91.20;;;;;;5049916;28;20655;-64
2023/08/28 12:21:12;;;;;;;1.55;0.63;;;22.00;91.50;;;;;;5055105;28;20033;-64
2023/08/28 12:23:53;;;;;;;2.08;0.80;;;22.10;91.90;;;;;;5056112;28;20040;-64
2023/08/28 12:26:26;;;;;;;1.33;0.50;;;22.10;91.20;;;;;;5051158;28;20094;-64
2023/08/28 12:28:52;;;;;;;0.57;0.40;;;22.20;90.70;;;;;;5053367;28;20025;-64
2023/08/28 12:31:30;;;;;;;1.23;0.55;;;22.30;90.60;;;;;;5056284;28;20797;-64
2023/08/28 12:33:56;;;;;;;0.90;0.60;;;22.20;90.70;;;;;;5052754;28;20489;-64
2023/08/28 12:36:36;;;;;;;0.73;0.40;;;22.30;90.40;;;;;;5056582;28;20396;-64
2023/08/28 12:39:06;;;;;;;0.75;0.50;;;22.30;90.10;;;;;;5053682;28;20063;-64
2023/08/28 12:41:47;;;;;;;0.85;0.60;;;22.30;90.90;;;;;;5054553;28;20479;-64
2023/08/28 12:44:12;;;;;;;1.00;0.70;;;22.30;90.00;;;;;;5050435;28;20053;-64
2023/08/28 12:46:38;;;;;;;4.50;0.90;;;22.40;89.90;;;;;;5054109;28;20552;-64
2023/08/28 12:49:04;;;;;;;1.90;0.77;;;22.40;90.10;;;;;;5053875;28;20041;-64
2023/08/28 12:51:30;;;;;;;1.95;0.70;;;22.50;89.00;;;;;;5055010;28;20588;-64
2023/08/28 12:53:56;;;;;;;1.38;0.70;;;22.60;89.60;;;;;;5051775;28;20032;-64